Amsterdam, Missouri
Current Conditions -  °F | °C
As of 5:53 AM on Sunday 23 Nov 2014 (Local Time) from KOJC Reporting Station
Haze Haze  
Wind Chill: 52°   Ceiling: 600
Heat Index: 52°   Visibility: 6mi
Dew Point: 52°   Wind: 8mph
Humidity: 100%   Direction: 170°S
Pressure: 29.53"   Gusts: NA
Location:  38.35°N, 94.59°W
Report Text: KOJC 231153Z AUTO 17007KT 6SM BR OVC006 11/11 A2953 RMK AO2 RAE1055 CIG 005V011 SLP998 P0000 60000 T01110111 10122 20111 56024
Loading
Personal Weather Stations






























Interactive Weather Map New forecast layout! Learn more

10-Day Weather Forecast

Advertisements
Track Severe Weather on mobile